Time;durP1;ratioP1;P1;durP2;ratioP2;P2;SDS_P1;SDS_P2;PMS_P1;PMS_P2;Temp;Humidity;BMP_temperature;BMP_pressure;BME280_temperature;BME280_humidity;BME280_pressure;Samples;Min_cycle;Max_cycle;Signal;HPM_P1;HPM_P2
2024/04/07 00:00:43;;;;;;;;;;;;;;;;;;5054004;28;20432;-65
2024/04/07 00:03:09;;;;;;;;;;;;;;;;;;5055538;28;19920;-65
2024/04/07 00:05:35;;;;;;;;;;;;;;;;;;5040476;28;19929;-65
2024/04/07 00:08:01;;;;;;;;;;;;;;;;;;5046922;28;20342;-65
2024/04/07 00:10:27;;;;;;;;;;;;;;;;;;5049753;28;20000;-65
2024/04/07 00:12:52;;;;;;;;;;;;;;;;;;5048296;28;20728;-65
2024/04/07 00:15:19;;;;;;;;;;;;;;;;;;5053759;28;20010;-65
2024/04/07 00:17:45;;;;;;;;;;;;;;;;;;5065667;28;19927;-65
2024/04/07 00:20:11;;;;;;;;;;;;;;;;;;5056236;28;19921;-65
2024/04/07 00:22:37;;;;;;;;;;;;;;;;;;5034360;28;20372;-65
2024/04/07 00:25:03;;;;;;;;;;;;;;;;;;5061812;28;19932;-65
2024/04/07 00:27:29;;;;;;;;;;;;;;;;;;5058600;28;19947;-65
2024/04/07 00:29:55;;;;;;;;;;;;;;;;;;5049660;28;19932;-65
2024/04/07 00:32:21;;;;;;;;;;;;;;;;;;5056623;28;20589;-65
2024/04/07 00:34:47;;;;;;;;;;;;;;;;;;5027052;28;19920;-65
2024/04/07 00:37:13;;;;;;;;;;;;;;;;;;5049768;28;19974;-65
2024/04/07 00:39:39;;;;;;;;;;;;;;;;;;5053399;28;20444;-65
2024/04/07 00:42:05;;;;;;;;;;;;;;;;;;5060365;28;19928;-65
2024/04/07 00:44:31;;;;;;;;;;;;;;;;;;5039666;28;19925;-65
2024/04/07 00:46:57;;;;;;;;;;;;;;;;;;5057938;28;19928;-65
2024/04/07 00:49:22;;;;;;;;;;;;;;;;;;5063585;28;19943;-65
2024/04/07 00:51:48;;;;;;;;;;;;;;;;;;5056181;28;19936;-65
2024/04/07 00:54:14;;;;;;;;;;;;;;;;;;5035151;28;19921;-65
2024/04/07 00:56:40;;;;;;;;;;;;;;;;;;5045134;28;19936;-65
2024/04/07 00:59:06;;;;;;;;;;;;;;;;;;5066530;28;19986;-65
2024/04/07 01:01:33;;;;;;;;;;;;;;;;;;5054339;28;19962;-65
2024/04/07 01:03:59;;;;;;;;;;;;;;;;;;5069184;28;19972;-65
2024/04/07 01:06:24;;;;;;;;;;;;;;;;;;5054955;28;20407;-65
2024/04/07 01:08:50;;;;;;;;;;;;;;;;;;5040496;28;19920;-65
2024/04/07 01:11:16;;;;;;;;;;;;;;;;;;5031783;28;20005;-65
2024/04/07 01:13:42;;;;;;;;;;;;;;;;;;5020225;28;19943;-65
2024/04/07 01:16:08;;;;;;;;;;;;;;;;;;5034886;28;20467;-65
2024/04/07 01:18:34;;;;;;;;;;;;;;;;;;5038827;28;19921;-65
2024/04/07 01:21:00;;;;;;;;;;;;;;;;;;5032034;28;19969;-65
2024/04/07 01:23:26;;;;;;;;;;;;;;;;;;5034731;28;20008;-65
2024/04/07 01:25:52;;;;;;;;;;;;;;;;;;5039764;28;19921;-65
2024/04/07 01:28:18;;;;;;;;;;;;;;;;;;5039379;28;19929;-65
2024/04/07 01:30:43;;;;;;;;;;;;;;;;;;5028767;28;20371;-65
2024/04/07 01:33:11;;;;;;;;;;;;;;;;;;5043533;28;19922;-65
2024/04/07 01:35:37;;;;;;;;;;;;;;;;;;5034692;28;19971;-64
2024/04/07 01:38:02;;;;;;;;;;;;;;;;;;5032292;28;19925;-65
2024/04/07 01:40:28;;;;;;;;;;;;;;;;;;5032462;28;19925;-65
2024/04/07 01:42:54;;;;;;;;;;;;;;;;;;5051706;28;19921;-65
2024/04/07 01:45:20;;;;;;;;;;;;;;;;;;5032143;28;19925;-65
2024/04/07 01:47:46;;;;;;;;;;;;;;;;;;5026967;28;20246;-65
2024/04/07 01:50:12;;;;;;;;;;;;;;;;;;5033980;28;20336;-65
2024/04/07 01:52:38;;;;;;;;;;;;;;;;;;5033273;28;19929;-64
2024/04/07 01:55:04;;;;;;;;;;;;;;;;;;5034915;28;20047;-64
2024/04/07 01:57:30;;;;;;;;;;;;;;;;;;5035927;28;19999;-64
2024/04/07 01:59:56;;;;;;;;;;;;;;;;;;5052487;28;19921;-64
2024/04/07 02:02:22;;;;;;;;;;;;;;;;;;5036236;28;19921;-63
2024/04/07 02:04:48;;;;;;;;;;;;;;;;;;5045433;28;20372;-63
2024/04/07 02:07:14;;;;;;;;;;;;;;;;;;5035780;28;19928;-63
2024/04/07 02:09:40;;;;;;;;;;;;;;;;;;5013775;28;19925;-63
2024/04/07 02:12:06;;;;;;;;;;;;;;;;;;5030568;28;20000;-63
2024/04/07 02:14:32;;;;;;;;;;;;;;;;;;5032983;28;20012;-63
2024/04/07 02:16:58;;;;;;;;;;;;;;;;;;5031275;28;20036;-63
2024/04/07 02:19:24;;;;;;;;;;;;;;;;;;5036991;28;20272;-63
2024/04/07 02:21:50;;;;;;;;;;;;;;;;;;5044955;28;19928;-64
2024/04/07 02:24:16;;;;;;;;;;;;;;;;;;5032866;28;20316;-64
2024/04/07 02:26:41;;;;;;;;;;;;;;;;;;5024854;28;19925;-64
2024/04/07 02:29:07;;;;;;;;;;;;;;;;;;5027178;28;19933;-64
2024/04/07 02:31:33;;;;;;;;;;;;;;;;;;5027926;28;19925;-64
2024/04/07 02:33:59;;;;;;;;;;;;;;;;;;5026757;28;20362;-64
2024/04/07 02:36:25;;;;;;;;;;;;;;;;;;5025290;28;19924;-64
2024/04/07 02:38:52;;;;;;;;;;;;;;;;;;5045827;28;19921;-64
2024/04/07 02:41:18;;;;;;;;;;;;;;;;;;5026021;28;19925;-64
2024/04/07 02:43:44;;;;;;;;;;;;;;;;;;5026221;28;19936;-64
2024/04/07 02:48:54;;;;;;;;;;;;;;;;;;5029456;28;19991;-64
2024/04/07 02:51:20;;;;;;;;;;;;;;;;;;5041131;28;20334;-64
2024/04/07 02:53:46;;;;;;;;;;;;;;;;;;5035967;28;20016;-64
2024/04/07 02:56:15;;;;;;;;;;;;;;;;;;5034646;28;20342;-64
2024/04/07 02:58:41;;;;;;;;;;;;;;;;;;5012225;28;19929;-64
2024/04/07 03:01:07;;;;;;;;;;;;;;;;;;5038982;28;19933;-64
2024/04/07 03:03:33;;;;;;;;;;;;;;;;;;5019215;28;19936;-64
2024/04/07 03:05:59;;;;;;;;;;;;;;;;;;5038049;28;19921;-64
2024/04/07 03:08:25;;;;;;;;;;;;;;;;;;5037728;28;19947;-64
2024/04/07 03:10:51;;;;;;;;;;;;;;;;;;5036109;28;19932;-64
2024/04/07 03:13:17;;;;;;;;;;;;;;;;;;5030638;28;19928;-64
2024/04/07 03:15:43;;;;;;;;;;;;;;;;;;5031202;28;19921;-64
2024/04/07 03:18:09;;;;;;;;;;;;;;;;;;5021841;28;19949;-66
2024/04/07 03:20:34;;;;;;;;;;;;;;;;;;5036842;28;19924;-64
2024/04/07 03:23:00;;;;;;;;;;;;;;;;;;5047217;28;20371;-64
2024/04/07 03:25:26;;;;;;;;;;;;;;;;;;5019211;28;19931;-64
2024/04/07 03:27:52;;;;;;;;;;;;;;;;;;5018991;28;20003;-64
2024/04/07 03:30:18;;;;;;;;;;;;;;;;;;5042909;28;19929;-64
2024/04/07 03:32:44;;;;;;;;;;;;;;;;;;5016804;28;20462;-64
2024/04/07 03:35:10;;;;;;;;;;;;;;;;;;5047742;28;20007;-64
2024/04/07 03:37:36;;;;;;;;;;;;;;;;;;5026333;28;19968;-64
2024/04/07 03:40:02;;;;;;;;;;;;;;;;;;5024302;28;20004;-64
2024/04/07 03:42:28;;;;;;;;;;;;;;;;;;5022018;28;20370;-65
2024/04/07 03:44:53;;;;;;;;;;;;;;;;;;5039782;28;19925;-64
2024/04/07 03:47:19;;;;;;;;;;;;;;;;;;5038619;28;19920;-64
2024/04/07 03:49:45;;;;;;;;;;;;;;;;;;5047230;28;20334;-64
2024/04/07 03:52:11;;;;;;;;;;;;;;;;;;5040562;28;19925;-64
2024/04/07 03:54:37;;;;;;;;;;;;;;;;;;5045073;28;19923;-64
2024/04/07 03:57:03;;;;;;;;;;;;;;;;;;5024094;28;19929;-64
2024/04/07 03:59:29;;;;;;;;;;;;;;;;;;5022372;28;19968;-64
2024/04/07 04:01:55;;;;;;;;;;;;;;;;;;5022723;28;20337;-65
2024/04/07 04:04:21;;;;;;;;;;;;;;;;;;5042985;28;19925;-65
2024/04/07 04:06:47;;;;;;;;;;;;;;;;;;4997949;28;19944;-65
2024/04/07 04:09:13;;;;;;;;;;;;;;;;;;5025082;28;20375;-63
2024/04/07 04:11:39;;;;;;;;;;;;;;;;;;5048852;28;19935;-64
2024/04/07 04:14:05;;;;;;;;;;;;;;;;;;5044651;28;19979;-63
2024/04/07 04:16:30;;;;;;;;;;;;;;;;;;5059093;28;19967;-63
2024/04/07 04:18:56;;;;;;;;;;;;;;;;;;5058249;28;19924;-63
2024/04/07 04:21:22;;;;;;;;;;;;;;;;;;5063374;28;19921;-63
2024/04/07 04:23:48;;;;;;;;;;;;;;;;;;5055170;28;19932;-64
2024/04/07 04:26:15;;;;;;;;;;;;;;;;;;5031396;23;20339;-71
2024/04/07 04:28:40;;;;;;;;;;;;;;;;;;5030639;28;20298;-71
2024/04/07 04:31:06;;;;;;;;;;;;;;;;;;5056215;28;20007;-71
2024/04/07 04:33:32;;;;;;;;;;;;;;;;;;5032710;28;19935;-72
2024/04/07 04:35:58;;;;;;;;;;;;;;;;;;5053836;28;20449;-72
2024/04/07 04:38:24;;;;;;;;;;;;;;;;;;5050418;28;19932;-71
2024/04/07 04:40:50;;;;;;;;;;;;;;;;;;5065496;28;19924;-71
2024/04/07 04:43:18;;;;;;;;;;;;;;;;;;5049865;28;19990;-70
2024/04/07 04:45:44;;;;;;;;;;;;;;;;;;5051079;28;19993;-70
2024/04/07 04:48:10;;;;;;;;;;;;;;;;;;5064532;28;19928;-72
2024/04/07 04:50:37;;;;;;;;;;;;;;;;;;5039140;28;20315;-72
2024/04/07 04:53:03;;;;;;;;;;;;;;;;;;5023242;28;19944;-72
2024/04/07 04:55:29;;;;;;;;;;;;;;;;;;5065753;28;19932;-71
2024/04/07 04:57:55;;;;;;;;;;;;;;;;;;5027938;28;19989;-71
2024/04/07 05:00:21;;;;;;;;;;;;;;;;;;5055732;28;19928;-71
2024/04/07 05:02:47;;;;;;;;;;;;;;;;;;5032629;28;20364;-71
2024/04/07 05:05:13;;;;;;;;;;;;;;;;;;5045481;28;20316;-70
2024/04/07 05:07:39;;;;;;;;;;;;;;;;;;5053235;28;19932;-71
2024/04/07 05:10:05;;;;;;;;;;;;;;;;;;5071649;28;19925;-72
2024/04/07 05:12:31;;;;;;;;;;;;;;;;;;5042049;28;19925;-70
2024/04/07 05:14:57;;;;;;;;;;;;;;;;;;5025796;28;20287;-71
2024/04/07 05:17:22;;;;;;;;;;;;;;;;;;5034752;28;19920;-71
2024/04/07 05:19:48;;;;;;;;;;;;;;;;;;5044912;28;19920;-72
2024/04/07 05:22:14;;;;;;;;;;;;;;;;;;5046553;28;19929;-72
2024/04/07 05:24:40;;;;;;;;;;;;;;;;;;5052122;28;20415;-72
2024/04/07 05:27:06;;;;;;;;;;;;;;;;;;5036847;28;19929;-72
2024/04/07 05:29:32;;;;;;;;;;;;;;;;;;5045429;28;19921;-72
2024/04/07 05:31:58;;;;;;;;;;;;;;;;;;5052454;28;21680;-71
2024/04/07 05:34:27;;;;;;;;;;;;;;;;;;5051939;28;19924;-72
2024/04/07 05:36:53;;;;;;;;;;;;;;;;;;5061752;28;20011;-72
2024/04/07 05:39:19;;;;;;;;;;;;;;;;;;5054002;28;20011;-71
2024/04/07 05:41:45;;;;;;;;;;;;;;;;;;5049555;28;20254;-72
2024/04/07 05:44:11;;;;;;;;;;;;;;;;;;5026299;28;20392;-72
2024/04/07 05:46:37;;;;;;;;;;;;;;;;;;5066164;28;19920;-72
2024/04/07 05:49:02;;;;;;;;;;;;;;;;;;5054691;28;19928;-71
2024/04/07 05:51:28;;;;;;;;;;;;;;;;;;5051740;28;19936;-71
2024/04/07 05:53:54;;;;;;;;;;;;;;;;;;5032974;28;20454;-71
2024/04/07 05:56:20;;;;;;;;;;;;;;;;;;5036118;28;19976;-72
2024/04/07 05:58:46;;;;;;;;;;;;;;;;;;5063037;28;20429;-71
2024/04/07 06:01:12;;;;;;;;;;;;;;;;;;5025684;28;19924;-72
2024/04/07 06:03:38;;;;;;;;;;;;;;;;;;5053176;28;19982;-72
2024/04/07 06:06:04;;;;;;;;;;;;;;;;;;5044027;28;19973;-71
2024/04/07 06:08:30;;;;;;;;;;;;;;;;;;5036339;28;19921;-72
2024/04/07 06:10:56;;;;;;;;;;;;;;;;;;5058489;28;19960;-72
2024/04/07 06:13:22;;;;;;;;;;;;;;;;;;5044242;28;19921;-71
2024/04/07 06:15:48;;;;;;;;;;;;;;;;;;5047343;28;20375;-72
2024/04/07 06:18:13;;;;;;;;;;;;;;;;;;5015513;28;19925;-72
2024/04/07 06:20:39;;;;;;;;;;;;;;;;;;5045131;28;19961;-70
2024/04/07 06:23:05;;;;;;;;;;;;;;;;;;5055012;28;19928;-72
2024/04/07 06:25:31;;;;;;;;;;;;;;;;;;5046624;28;20021;-72
2024/04/07 06:27:57;;;;;;;;;;;;;;;;;;5029693;28;19929;-72
2024/04/07 06:30:23;;;;;;;;;;;;;;;;;;5031884;28;19925;-72
2024/04/07 06:32:49;;;;;;;;;;;;;;;;;;5013968;28;19928;-72
2024/04/07 06:35:15;;;;;;;;;;;;;;;;;;5027360;28;19924;-71
2024/04/07 06:37:41;;;;;;;;;;;;;;;;;;5033088;28;19920;-71
2024/04/07 06:40:07;;;;;;;;;;;;;;;;;;5033640;28;20364;-72
2024/04/07 06:42:33;;;;;;;;;;;;;;;;;;5029404;28;19928;-70
2024/04/07 06:45:02;;;;;;;;;;;;;;;;;;5032772;28;19920;-71
2024/04/07 06:47:28;;;;;;;;;;;;;;;;;;5051798;28;19925;-72
2024/04/07 06:49:54;;;;;;;;;;;;;;;;;;5051070;28;19948;-70
2024/04/07 06:52:20;;;;;;;;;;;;;;;;;;5033120;28;20284;-71
2024/04/07 06:54:46;;;;;;;;;;;;;;;;;;5033224;28;19940;-71
2024/04/07 06:57:12;;;;;;;;;;;;;;;;;;5032179;28;19931;-71
2024/04/07 06:59:38;;;;;;;;;;;;;;;;;;5044408;28;19927;-70
2024/04/07 07:02:03;;;;;;;;;;;;;;;;;;5048447;28;19920;-71
2024/04/07 07:04:29;;;;;;;;;;;;;;;;;;5013326;28;19921;-71
2024/04/07 07:06:55;;;;;;;;;;;;;;;;;;5031464;28;19994;-72
2024/04/07 07:09:21;;;;;;;;;;;;;;;;;;5031078;28;19968;-71
2024/04/07 07:11:47;;;;;;;;;;;;;;;;;;5010188;28;20007;-71
2024/04/07 07:14:13;;;;;;;;;;;;;;;;;;5032985;28;19995;-71
2024/04/07 07:16:39;;;;;;;;;;;;;;;;;;5024957;28;20004;-71
2024/04/07 07:19:05;;;;;;;;;;;;;;;;;;5014034;28;19921;-71
2024/04/07 07:21:31;;;;;;;;;;;;;;;;;;5039532;28;19924;-71
2024/04/07 07:23:57;;;;;;;;;;;;;;;;;;5051178;28;20012;-71
2024/04/07 07:26:23;;;;;;;;;;;;;;;;;;5050928;28;20020;-70
2024/04/07 07:28:49;;;;;;;;;;;;;;;;;;5037685;28;20416;-72
2024/04/07 07:31:15;;;;;;;;;;;;;;;;;;5029257;28;20036;-72
2024/04/07 07:33:41;;;;;;;;;;;;;;;;;;5025180;28;20028;-71
2024/04/07 07:36:07;;;;;;;;;;;;;;;;;;5027023;28;19924;-72
2024/04/07 07:38:33;;;;;;;;;;;;;;;;;;5013926;28;19921;-72
2024/04/07 07:40:59;;;;;;;;;;;;;;;;;;5041409;28;19921;-71
2024/04/07 07:43:25;;;;;;;;;;;;;;;;;;5033310;28;19975;-72
2024/04/07 07:45:52;;;;;;;;;;;;;;;;;;5027197;28;19921;-72
2024/04/07 07:48:18;;;;;;;;;;;;;;;;;;5016980;28;19944;-72
2024/04/07 07:50:44;;;;;;;;;;;;;;;;;;5020529;28;19968;-72
2024/04/07 07:53:10;;;;;;;;;;;;;;;;;;5020279;28;19957;-72
2024/04/07 07:55:36;;;;;;;;;;;;;;;;;;5034955;28;19932;-70
2024/04/07 07:58:02;;;;;;;;;;;;;;;;;;5023177;28;20056;-70
2024/04/07 08:00:28;;;;;;;;;;;;;;;;;;5030596;28;19925;-70
2024/04/07 08:02:54;;;;;;;;;;;;;;;;;;5017612;28;20645;-72
2024/04/07 08:05:20;;;;;;;;;;;;;;;;;;5039562;28;20043;-70
2024/04/07 08:07:46;;;;;;;;;;;;;;;;;;5030566;28;20016;-71
2024/04/07 08:10:12;;;;;;;;;;;;;;;;;;5015758;28;20003;-71
2024/04/07 08:12:38;;;;;;;;;;;;;;;;;;5014978;28;19921;-72
2024/04/07 08:15:04;;;;;;;;;;;;;;;;;;5022172;28;20512;-71
2024/04/07 08:17:30;;;;;;;;;;;;;;;;;;5016315;28;19944;-71
2024/04/07 08:19:56;;;;;;;;;;;;;;;;;;5035011;28;19921;-70
2024/04/07 08:22:22;;;;;;;;;;;;;;;;;;5014719;28;19925;-70
2024/04/07 08:24:48;;;;;;;;;;;;;;;;;;5036309;28;19935;-71
2024/04/07 08:27:15;;;;;;;;;;;;;;;;;;5043178;28;19951;-71
2024/04/07 08:29:41;;;;;;;;;;;;;;;;;;5005467;28;19925;-71
2024/04/07 08:32:07;;;;;;;;;;;;;;;;;;5037229;28;19928;-70
2024/04/07 08:34:33;;;;;;;;;;;;;;;;;;5052141;28;19964;-70
2024/04/07 08:36:59;;;;;;;;;;;;;;;;;;5033829;28;19925;-70
2024/04/07 08:39:25;;;;;;;;;;;;;;;;;;5014660;28;19935;-70
2024/04/07 08:41:51;;;;;;;;;;;;;;;;;;5014481;28;19943;-70
2024/04/07 08:44:16;;;;;;;;;;;;;;;;;;5031585;28;20319;-70
2024/04/07 08:46:44;;;;;;;;;;;;;;;;;;5016507;28;20011;-72
2024/04/07 08:49:10;;;;;;;;;;;;;;;;;;5033249;28;19968;-71
2024/04/07 08:51:35;;;;;;;;;;;;;;;;;;5035783;28;19921;-71
2024/04/07 08:54:01;;;;;;;;;;;;;;;;;;5010356;28;20288;-69
2024/04/07 08:56:27;;;;;;;;;;;;;;;;;;5000253;28;19921;-69
2024/04/07 08:58:53;;;;;;;;;;;;;;;;;;5033353;28;20296;-70
2024/04/07 09:01:20;;;;;;;;;;;;;;;;;;5017466;28;19925;-70
2024/04/07 09:03:46;;;;;;;;;;;;;;;;;;5018463;28;19931;-70
2024/04/07 09:06:12;;;;;;;;;;;;;;;;;;5013015;28;19921;-70
2024/04/07 09:08:38;;;;;;;;;;;;;;;;;;5022278;28;19928;-70
2024/04/07 09:11:04;;;;;;;;;;;;;;;;;;5008102;28;20396;-70
2024/04/07 09:13:30;;;;;;;;;;;;;;;;;;4991126;28;19929;-71
2024/04/07 09:15:56;;;;;;;;;;;;;;;;;;5006419;28;19928;-71
2024/04/07 09:18:22;;;;;;;;;;;;;;;;;;4991570;28;19928;-71
2024/04/07 09:20:47;;;;;;;;;;;;;;;;;;5043780;28;19950;-72
2024/04/07 09:23:13;;;;;;;;;;;;;;;;;;5023406;28;19925;-71
2024/04/07 09:25:39;;;;;;;;;;;;;;;;;;5020345;28;20075;-71
2024/04/07 09:28:05;;;;;;;;;;;;;;;;;;5065758;28;20007;-71
2024/04/07 09:30:31;;;;;;;;;;;;;;;;;;5058550;28;20015;-70
2024/04/07 09:32:57;;;;;;;;;;;;;;;;;;5071986;28;20335;-70
2024/04/07 09:35:23;;;;;;;;;;;;;;;;;;5057838;28;19927;-70
2024/04/07 09:37:49;;;;;;;;;;;;;;;;;;5053152;28;19932;-70
2024/04/07 09:40:15;;;;;;;;;;;;;;;;;;5048316;28;19928;-68
2024/04/07 09:42:41;;;;;;;;;;;;;;;;;;5034460;28;19920;-70
2024/04/07 09:45:08;;;;;;;;;;;;;;;;;;5068242;28;19924;-69
2024/04/07 09:47:34;;;;;;;;;;;;;;;;;;5079246;28;20371;-70
2024/04/07 09:50:00;;;;;;;;;;;;;;;;;;5049534;28;19920;-71
2024/04/07 09:52:26;;;;;;;;;;;;;;;;;;5058954;28;19931;-70
2024/04/07 09:54:52;;;;;;;;;;;;;;;;;;5041535;28;19978;-69
2024/04/07 09:57:18;;;;;;;;;;;;;;;;;;5041073;28;20428;-70
2024/04/07 09:59:44;;;;;;;;;;;;;;;;;;5070530;28;19974;-71
2024/04/07 10:02:10;;;;;;;;;;;;;;;;;;5069923;28;19992;-69
2024/04/07 10:04:36;;;;;;;;;;;;;;;;;;5071258;28;20267;-70
2024/04/07 10:07:02;;;;;;;;;;;;;;;;;;5072140;28;19921;-70
2024/04/07 10:09:28;;;;;;;;;;;;;;;;;;5063916;28;19927;-69
2024/04/07 10:11:54;;;;;;;;;;;;;;;;;;5070626;28;19939;-69
2024/04/07 10:14:20;;;;;;;;;;;;;;;;;;5036416;28;19975;-70
2024/04/07 10:16:48;;;;;;;;;;;;;;;;;;5071339;28;19970;-70
2024/04/07 10:19:14;;;;;;;;;;;;;;;;;;5071400;28;19931;-69
2024/04/07 10:21:40;;;;;;;;;;;;;;;;;;5071046;28;20258;-69
2024/04/07 10:24:05;;;;;;;;;;;;;;;;;;5067818;28;19933;-69
2024/04/07 10:26:32;;;;;;;;;;;;;;;;;;5066942;28;19980;-69
2024/04/07 10:28:58;;;;;;;;;;;;;;;;;;5069313;28;19924;-69
2024/04/07 10:31:24;;;;;;;;;;;;;;;;;;5071679;28;19932;-70
2024/04/07 10:33:50;;;;;;;;;;;;;;;;;;5062530;28;20392;-70
2024/04/07 10:36:15;;;;;;;;;;;;;;;;;;5051254;28;19974;-71
2024/04/07 10:38:41;;;;;;;;;;;;;;;;;;5065550;28;19920;-69
2024/04/07 10:41:07;;;;;;;;;;;;;;;;;;5070569;28;20020;-69
2024/04/07 10:43:33;;;;;;;;;;;;;;;;;;5049300;28;20324;-68
2024/04/07 10:45:59;;;;;;;;;;;;;;;;;;5071534;28;20010;-69
2024/04/07 10:48:25;;;;;;;;;;;;;;;;;;5062894;28;19976;-69
2024/04/07 10:50:51;;;;;;;;;;;;;;;;;;5033636;28;19964;-68
2024/04/07 10:53:17;;;;;;;;;;;;;;;;;;5040842;28;20415;-69
2024/04/07 10:55:43;;;;;;;;;;;;;;;;;;5038585;28;19920;-67
2024/04/07 10:58:11;;;;;;;;;;;;;;;;;;5058229;28;20015;-69
2024/04/07 11:00:37;;;;;;;;;;;;;;;;;;5071407;28;19955;-72
2024/04/07 11:03:03;;;;;;;;;;;;;;;;;;5056251;28;19971;-69
2024/04/07 11:05:29;;;;;;;;;;;;;;;;;;5033459;28;20031;-69
2024/04/07 11:07:55;;;;;;;;;;;;;;;;;;5051348;28;20337;-69
2024/04/07 11:10:21;;;;;;;;;;;;;;;;;;5049761;28;20651;-70
2024/04/07 11:12:47;;;;;;;;;;;;;;;;;;5070320;28;19924;-69
2024/04/07 11:15:13;;;;;;;;;;;;;;;;;;5059579;28;19927;-69
2024/04/07 11:17:39;;;;;;;;;;;;;;;;;;5071119;28;19944;-68
2024/04/07 11:20:05;;;;;;;;;;;;;;;;;;5070926;28;19924;-69
2024/04/07 11:22:31;;;;;;;;;;;;;;;;;;5071807;28;20359;-69
2024/04/07 11:24:56;;;;;;;;;;;;;;;;;;5075150;28;19925;-69
2024/04/07 11:27:22;;;;;;;;;;;;;;;;;;5073564;28;19925;-69
2024/04/07 11:29:49;;;;;;;;;;;;;;;;;;5054775;28;19920;-69
2024/04/07 11:32:14;;;;;;;;;;;;;;;;;;5051624;28;19928;-68
2024/04/07 11:34:40;;;;;;;;;;;;;;;;;;5079944;28;19927;-69
2024/04/07 11:37:06;;;;;;;;;;;;;;;;;;5073907;28;20383;-69
2024/04/07 11:39:34;;;;;;;;;;;;;;;;;;5073494;28;20274;-69
2024/04/07 11:42:05;;;;;;;;;;;;;;;;;;5073422;28;20047;-69
2024/04/07 11:44:31;;;;;;;;;;;;;;;;;;5056827;28;19924;-68
2024/04/07 11:46:57;;;;;;;;;;;;;;;;;;5056340;28;20415;-69
2024/04/07 11:49:23;;;;;;;;;;;;;;;;;;5056654;28;20019;-69
2024/04/07 11:51:49;;;;;;;;;;;;;;;;;;5051700;28;19943;-69
2024/04/07 11:54:15;;;;;;;;;;;;;;;;;;5042258;28;20303;-70
2024/04/07 11:56:41;;;;;;;;;;;;;;;;;;5053250;28;19931;-69
2024/04/07 11:59:07;;;;;;;;;;;;;;;;;;5071763;28;19960;-69
2024/04/07 12:01:33;;;;;;;;;;;;;;;;;;5073850;28;20022;-70
2024/04/07 12:03:59;;;;;;;;;;;;;;;;;;5055536;28;19970;-70
2024/04/07 12:06:25;;;;;;;;;;;;;;;;;;5074247;28;20007;-70
2024/04/07 12:08:51;;;;;;;;;;;;;;;;;;5056321;28;20050;-67
2024/04/07 12:11:17;;;;;;;;;;;;;;;;;;5073000;28;20637;-65
2024/04/07 12:13:43;;;;;;;;;;;;;;;;;;5072437;28;20015;-66
2024/04/07 12:16:09;;;;;;;;;;;;;;;;;;5072716;28;20042;-68
2024/04/07 12:18:35;;;;;;;;;;;;;;;;;;5074393;28;19928;-67
2024/04/07 12:21:01;;;;;;;;;;;;;;;;;;5055694;28;19983;-67
2024/04/07 12:23:27;;;;;;;;;;;;;;;;;;5056191;28;20015;-67
2024/04/07 12:25:53;;;;;;;;;;;;;;;;;;5073805;28;20019;-67
2024/04/07 12:28:19;;;;;;;;;;;;;;;;;;5073989;28;19921;-67
2024/04/07 12:30:46;;;;;;;;;;;;;;;;;;5070618;28;19928;-66
2024/04/07 12:33:12;;;;;;;;;;;;;;;;;;5055716;28;20287;-66
2024/04/07 12:35:38;;;;;;;;;;;;;;;;;;5073357;28;19924;-67
2024/04/07 12:38:04;;;;;;;;;;;;;;;;;;5055437;28;19946;-67
2024/04/07 12:40:30;;;;;;;;;;;;;;;;;;5072502;28;19924;-68
2024/04/07 12:42:56;;;;;;;;;;;;;;;;;;5072676;28;19942;-67
2024/04/07 12:45:23;;;;;;;;;;;;;;;;;;5069208;28;20582;-67
2024/04/07 12:47:48;;;;;;;;;;;;;;;;;;5072821;28;20371;-67
2024/04/07 12:50:15;;;;;;;;;;;;;;;;;;5071068;28;19920;-68
2024/04/07 12:52:42;;;;;;;;;;;;;;;;;;5053483;28;19932;-67
2024/04/07 12:55:09;;;;;;;;;;;;;;;;;;5054773;28;19920;-67
2024/04/07 12:57:35;;;;;;;;;;;;;;;;;;5054650;28;19931;-67
2024/04/07 13:00:01;;;;;;;;;;;;;;;;;;5069175;28;19921;-66
2024/04/07 13:02:27;;;;;;;;;;;;;;;;;;5054742;28;19924;-67
2024/04/07 13:04:53;;;;;;;;;;;;;;;;;;5073063;28;19924;-67
2024/04/07 13:07:19;;;;;;;;;;;;;;;;;;5055056;28;19920;-68
2024/04/07 13:09:45;;;;;;;;;;;;;;;;;;5073448;28;20019;-68
2024/04/07 13:12:11;;;;;;;;;;;;;;;;;;5072948;28;20546;-67
2024/04/07 13:14:37;;;;;;;;;;;;;;;;;;5073173;28;19927;-67
2024/04/07 13:17:03;;;;;;;;;;;;;;;;;;5069735;28;19920;-67
2024/04/07 13:19:28;;;;;;;;;;;;;;;;;;5072562;28;19929;-67
2024/04/07 13:21:54;;;;;;;;;;;;;;;;;;5073232;28;20148;-66
2024/04/07 13:24:20;;;;;;;;;;;;;;;;;;5054492;28;20389;-67
2024/04/07 13:26:46;;;;;;;;;;;;;;;;;;5072936;28;19925;-67
2024/04/07 13:29:12;;;;;;;;;;;;;;;;;;5072681;28;19927;-68
2024/04/07 13:31:38;;;;;;;;;;;;;;;;;;5069369;28;19924;-68
2024/04/07 13:34:04;;;;;;;;;;;;;;;;;;5054470;28;20448;-66
2024/04/07 13:36:30;;;;;;;;;;;;;;;;;;5054543;28;19999;-67
2024/04/07 13:38:56;;;;;;;;;;;;;;;;;;5072334;28;20634;-67
2024/04/07 13:41:22;;;;;;;;;;;;;;;;;;5069872;28;19924;-67
2024/04/07 13:43:48;;;;;;;;;;;;;;;;;;5070388;28;19924;-67
2024/04/07 13:46:14;;;;;;;;;;;;;;;;;;5067444;28;19929;-67
2024/04/07 13:48:40;;;;;;;;;;;;;;;;;;5053033;28;19924;-67
2024/04/07 13:51:06;;;;;;;;;;;;;;;;;;5062111;28;20393;-67
2024/04/07 13:53:32;;;;;;;;;;;;;;;;;;5061854;28;20431;-67
2024/04/07 13:55:58;;;;;;;;;;;;;;;;;;5071647;28;20011;-67
2024/04/07 13:58:23;;;;;;;;;;;;;;;;;;5071592;28;20011;-67
2024/04/07 14:00:49;;;;;;;;;;;;;;;;;;5068740;28;20119;-67
2024/04/07 14:03:15;;;;;;;;;;;;;;;;;;5071097;28;19967;-67
2024/04/07 14:05:41;;;;;;;;;;;;;;;;;;5071332;28;20391;-67
2024/04/07 14:08:07;;;;;;;;;;;;;;;;;;5071211;28;19959;-67
2024/04/07 14:10:36;;;;;;;;;;;;;;;;;;5053289;28;20003;-67
2024/04/07 14:13:02;;;;;;;;;;;;;;;;;;5070456;28;20304;-67
2024/04/07 14:15:28;;;;;;;;;;;;;;;;;;5053230;28;19946;-67
2024/04/07 14:17:54;;;;;;;;;;;;;;;;;;5067227;28;19932;-66
2024/04/07 14:20:20;;;;;;;;;;;;;;;;;;5070842;28;19920;-67
2024/04/07 14:22:46;;;;;;;;;;;;;;;;;;5070382;28;19924;-67
2024/04/07 14:25:12;;;;;;;;;;;;;;;;;;5071694;28;20265;-67
2024/04/07 14:27:38;;;;;;;;;;;;;;;;;;5071627;28;19928;-67
2024/04/07 14:30:04;;;;;;;;;;;;;;;;;;5071349;28;19927;-68
2024/04/07 14:32:30;;;;;;;;;;;;;;;;;;5066765;28;19993;-67
2024/04/07 14:34:56;;;;;;;;;;;;;;;;;;5071400;28;20007;-67
2024/04/07 14:37:22;;;;;;;;;;;;;;;;;;5071117;28;19927;-67
2024/04/07 14:39:48;;;;;;;;;;;;;;;;;;5071454;28;20451;-67
2024/04/07 14:42:15;;;;;;;;;;;;;;;;;;5070450;28;19927;-67
2024/04/07 14:44:41;;;;;;;;;;;;;;;;;;5069727;28;20391;-67
2024/04/07 14:47:07;;;;;;;;;;;;;;;;;;5068583;28;19928;-66
2024/04/07 14:49:33;;;;;;;;;;;;;;;;;;5052220;28;19924;-67
2024/04/07 14:51:59;;;;;;;;;;;;;;;;;;5056104;28;19921;-66
2024/04/07 14:54:25;;;;;;;;;;;;;;;;;;5071404;28;19931;-66
2024/04/07 14:56:51;;;;;;;;;;;;;;;;;;5069842;28;19977;-67
2024/04/07 14:59:17;;;;;;;;;;;;;;;;;;5070693;28;20003;-67
2024/04/07 15:01:45;;;;;;;;;;;;;;;;;;5068025;28;20448;-67
2024/04/07 15:04:11;;;;;;;;;;;;;;;;;;5069571;28;19935;-67
2024/04/07 15:06:37;;;;;;;;;;;;;;;;;;5069308;28;19920;-67
2024/04/07 15:09:03;;;;;;;;;;;;;;;;;;5070198;28;19920;-67
2024/04/07 15:11:29;;;;;;;;;;;;;;;;;;5070621;28;19967;-68
2024/04/07 15:13:55;;;;;;;;;;;;;;;;;;5049150;28;19951;-68
2024/04/07 15:16:21;;;;;;;;;;;;;;;;;;5052243;28;20037;-67
2024/04/07 15:18:46;;;;;;;;;;;;;;;;;;5070002;28;19990;-66
2024/04/07 15:21:15;;;;;;;;;;;;;;;;;;5068747;28;20221;-67
2024/04/07 15:23:41;;;;;;;;;;;;;;;;;;5070716;28;20002;-67
2024/04/07 15:26:07;;;;;;;;;;;;;;;;;;5048522;28;19928;-66
2024/04/07 15:28:33;;;;;;;;;;;;;;;;;;5028577;28;19931;-67
2024/04/07 15:30:59;;;;;;;;;;;;;;;;;;5047898;28;19921;-67
2024/04/07 15:33:25;;;;;;;;;;;;;;;;;;5049760;28;19932;-67
2024/04/07 15:35:51;;;;;;;;;;;;;;;;;;5050007;28;19921;-67
2024/04/07 15:38:17;;;;;;;;;;;;;;;;;;5049856;28;20310;-67
2024/04/07 15:40:43;;;;;;;;;;;;;;;;;;5050305;28;20540;-66
2024/04/07 15:43:10;;;;;;;;;;;;;;;;;;5049510;28;19920;-66
2024/04/07 15:45:36;;;;;;;;;;;;;;;;;;5040844;28;19929;-66
2024/04/07 15:48:02;;;;;;;;;;;;;;;;;;5047697;28;19983;-67
2024/04/07 15:50:28;;;;;;;;;;;;;;;;;;5043380;28;20395;-67
2024/04/07 15:52:53;;;;;;;;;;;;;;;;;;5049320;28;19970;-66
2024/04/07 15:55:19;;;;;;;;;;;;;;;;;;5050453;28;19970;-67
2024/04/07 15:57:46;;;;;;;;;;;;;;;;;;5050233;28;19925;-67
2024/04/07 16:00:11;;;;;;;;;;;;;;;;;;5050328;28;19921;-67
2024/04/07 16:02:38;;;;;;;;;;;;;;;;;;5048402;28;19928;-67
2024/04/07 16:05:04;;;;;;;;;;;;;;;;;;5047720;28;19938;-66
2024/04/07 16:07:29;;;;;;;;;;;;;;;;;;5050009;28;19925;-66
2024/04/07 16:09:55;;;;;;;;;;;;;;;;;;5049806;28;19925;-66
2024/04/07 16:12:21;;;;;;;;;;;;;;;;;;5054329;28;19931;-67
2024/04/07 16:14:47;;;;;;;;;;;;;;;;;;5054415;28;19931;-66
2024/04/07 16:17:13;;;;;;;;;;;;;;;;;;5053805;28;19921;-66
2024/04/07 16:19:39;;;;;;;;;;;;;;;;;;5049233;28;19966;-66
2024/04/07 16:22:05;;;;;;;;;;;;;;;;;;5053773;28;20403;-66
2024/04/07 16:24:31;;;;;;;;;;;;;;;;;;5053815;28;19936;-67
2024/04/07 16:26:58;;;;;;;;;;;;;;;;;;5066985;28;19978;-67
2024/04/07 16:29:26;;;;;;;;;;;;;;;;;;5055316;28;19970;-66
2024/04/07 16:31:52;;;;;;;;;;;;;;;;;;5035606;28;19925;-67
2024/04/07 16:34:18;;;;;;;;;;;;;;;;;;5058241;28;19966;-66
2024/04/07 16:36:43;;;;;;;;;;;;;;;;;;5073342;28;20307;-66
2024/04/07 16:39:11;;;;;;;;;;;;;;;;;;5072486;28;19921;-66